Time;durP1;ratioP1;P1;durP2;ratioP2;P2;SDS_P1;SDS_P2;PMS_P1;PMS_P2;Temp;Humidity;BMP_temperature;BMP_pressure;BME280_temperature;BME280_humidity;BME280_pressure;Samples;Min_cycle;Max_cycle;Signal;HPM_P1;HPM_P2
2022/01/31 00:02:13;;;;;;;23.10;9.60;;;128.70;2252.80;;;;;;4986966;28;20522;-87
2022/01/31 00:04:39;;;;;;;23.65;10.85;;;128.70;2252.80;;;;;;4979485;28;20034;-85
2022/01/31 00:07:05;;;;;;;20.08;9.43;;;128.70;2252.80;;;;;;4979416;28;20041;-83
2022/01/31 00:09:31;;;;;;;19.90;10.02;;;128.70;2252.80;;;;;;4978954;28;20034;-87
2022/01/31 00:12:04;;;;;;;25.75;10.55;;;128.80;2252.80;;;;;;4979429;28;20030;-87
2022/01/31 00:14:35;;;;;;;;;;;128.70;2252.80;;;;;;4979950;28;20085;-85
2022/01/31 00:17:01;;;;;;;19.63;9.52;;;128.70;2252.80;;;;;;4971695;28;19912;-84
2022/01/31 00:19:28;;;;;;;13.70;7.47;;;128.70;2252.80;;;;;;4979046;28;20027;-85
2022/01/31 00:21:54;;;;;;;17.30;7.65;;;128.60;2252.80;;;;;;4979013;28;20022;-84
2022/01/31 00:24:20;;;;;;;17.48;7.68;;;128.60;2252.80;;;;;;4978526;28;20058;-83
2022/01/31 00:26:46;;;;;;;17.02;7.38;;;128.60;2252.80;;;;;;4979244;28;20042;-86
2022/01/31 00:29:11;;;;;;;16.70;8.50;;;128.60;2252.80;;;;;;4996307;28;20027;-86
2022/01/31 00:31:37;;;;;;;13.73;5.63;;;128.50;2252.80;;;;;;4978526;28;20023;-86
2022/01/31 00:34:03;;;;;;;25.75;11.48;;;128.60;2252.80;;;;;;4977931;28;20026;-84
2022/01/31 00:36:29;;;;;;;17.70;6.95;;;128.60;2252.80;;;;;;4978872;28;20126;-83
2022/01/31 00:38:55;;;;;;;14.20;6.55;;;128.60;2252.80;;;;;;4978494;28;20463;-85
2022/01/31 00:41:21;;;;;;;21.92;9.50;;;128.60;2252.80;;;;;;4996112;28;20034;-84
2022/01/31 00:43:57;;;;;;;16.02;7.53;;;128.70;2252.80;;;;;;4978772;28;20039;-85
2022/01/31 00:46:34;;;;;;;17.70;8.55;;;128.70;2252.80;;;;;;4978032;28;20030;-87
2022/01/31 00:49:00;;;;;;;20.55;8.48;;;128.60;2252.80;;;;;;4979028;28;20046;-83
2022/01/31 00:51:26;;;;;;;16.95;8.45;;;128.50;2252.80;;;;;;4978812;28;20034;-78
2022/01/31 00:53:55;;;;;;;19.67;9.40;;;128.60;2252.80;;;;;;4978483;28;20355;-85
2022/01/31 01:00:24;;;;;;;22.67;9.60;;;128.50;2252.80;;;;;;4889970;29;20028;-84
2022/01/31 01:02:50;;;;;;;19.98;9.48;;;128.50;2252.80;;;;;;4912630;29;20059;-85
2022/01/31 01:05:16;;;;;;;13.77;5.63;;;128.40;2252.80;;;;;;4968253;28;20034;-85
2022/01/31 01:07:47;;;;;;;18.30;7.43;;;128.50;2252.80;;;;;;4978998;28;20026;-84
2022/01/31 01:10:17;;;;;;;16.55;7.40;;;128.50;2252.80;;;;;;4979062;28;20037;-86
2022/01/31 01:12:45;;;;;;;19.25;8.32;;;128.50;2252.80;;;;;;4978986;28;20459;-87
2022/01/31 01:15:12;;;;;;;23.42;8.90;;;128.40;2252.80;;;;;;4978778;28;20031;-87
2022/01/31 01:17:37;;;;;;;17.23;8.35;;;153.80;2252.80;;;;;;4979596;28;20029;-85
2022/01/31 01:20:05;;;;;;;21.23;9.00;;;128.40;2252.80;;;;;;4978678;28;20026;-82
2022/01/31 01:22:31;;;;;;;13.90;5.72;;;128.40;2252.80;;;;;;4978913;28;20022;-86
2022/01/31 01:24:58;;;;;;;13.30;5.68;;;128.40;2252.80;;;;;;4978708;28;20390;-85
2022/01/31 01:27:24;;;;;;;18.33;7.18;;;128.40;2252.80;;;;;;4978368;28;20057;-84
2022/01/31 01:29:50;;;;;;;13.13;6.05;;;128.50;2252.80;;;;;;4995912;28;20030;-86
2022/01/31 01:32:17;;;;;;;13.90;7.05;;;128.50;2252.80;;;;;;4978648;28;20022;-84
2022/01/31 01:34:43;;;;;;;18.30;7.68;;;128.50;2252.80;;;;;;4978235;28;20041;-85
2022/01/31 01:37:09;;;;;;;13.70;6.50;;;128.50;2252.80;;;;;;4978652;28;20403;-84
2022/01/31 01:39:35;;;;;;;11.98;5.85;;;128.50;2252.80;;;;;;4978327;28;20057;-82
2022/01/31 01:42:02;;;;;;;13.20;5.75;;;128.50;2252.80;;;;;;4978235;28;20117;-84
2022/01/31 01:44:50;;;;;;;17.65;8.38;;;128.40;2252.80;;;;;;4977924;28;20089;-83
2022/01/31 01:47:18;;;;;;;25.48;9.75;;;128.40;2252.80;;;;;;4977754;28;20048;-86
2022/01/31 01:49:45;;;;;;;19.83;8.43;;;128.40;2252.80;;;;;;4978106;28;20034;-88
2022/01/31 01:52:11;;;;;;;15.30;7.13;;;128.40;2252.80;;;;;;4978187;28;20026;-87
2022/01/31 01:54:37;;;;;;;12.75;6.00;;;128.40;2252.80;;;;;;4978162;28;20549;-86
2022/01/31 01:57:04;;;;;;;14.68;4.80;;;128.40;2252.80;;;;;;4977859;28;20118;-86
2022/01/31 01:59:35;;;;;;;16.73;6.72;;;128.40;2252.80;;;;;;4978021;28;20026;-85
2022/01/31 02:02:02;;;;;;;17.55;7.28;;;128.40;2252.80;;;;;;4995455;28;20408;-84
2022/01/31 02:04:28;;;;;;;17.00;8.40;;;128.40;2252.80;;;;;;4977909;28;20125;-85
2022/01/31 02:06:54;;;;;;;19.42;9.00;;;128.40;2252.80;;;;;;4977869;28;20137;-83
2022/01/31 02:09:26;;;;;;;19.00;8.30;;;128.40;2252.80;;;;;;4977840;28;20054;-84
2022/01/31 02:11:55;;;;;;;15.80;8.43;;;128.40;2252.80;;;;;;4978179;28;20073;-83
2022/01/31 02:14:29;;;;;;;18.67;8.88;;;128.40;2252.80;;;;;;4977886;28;20355;-85
2022/01/31 02:16:55;;;;;;;15.00;7.40;;;128.30;2252.80;;;;;;4977362;28;20054;-85
2022/01/31 02:19:23;;;;;;;18.27;9.73;;;128.40;2252.80;;;;;;4977494;28;20615;-84
2022/01/31 02:21:54;;;;;;;18.45;8.48;;;128.40;2252.80;;;;;;4977317;28;20022;-85
2022/01/31 02:24:20;;;;;;;22.83;9.68;;;128.40;2252.80;;;;;;4977599;28;20449;-85
2022/01/31 02:26:46;;;;;;;25.60;10.68;;;128.40;2252.80;;;;;;4977884;28;20451;-84
2022/01/31 02:29:12;;;;;;;31.98;15.57;;;128.40;2252.80;;;;;;4977718;28;20026;-83
2022/01/31 02:31:48;;;;;;;22.50;11.40;;;128.40;2252.80;;;;;;4977499;28;20026;-86
2022/01/31 02:34:15;;;;;;;30.63;18.67;;;128.40;2252.80;;;;;;4977677;28;20030;-86
2022/01/31 02:36:42;;;;;;;20.17;9.77;;;128.40;2252.80;;;;;;4977635;28;20026;-84
2022/01/31 02:39:09;;;;;;;17.20;7.07;;;128.40;2252.80;;;;;;4977528;28;20145;-84
2022/01/31 02:41:42;;;;;;;24.25;10.60;;;128.40;2252.80;;;;;;4977421;28;20034;-84
2022/01/31 02:44:15;;;;;;;23.55;11.35;;;128.40;2252.80;;;;;;4977390;28;20046;-86
2022/01/31 02:46:52;;;;;;;27.58;14.63;;;128.40;2252.80;;;;;;4977751;28;20026;-84
2022/01/31 02:49:22;;;;;;;22.98;11.02;;;128.40;2252.80;;;;;;4977570;28;20057;-84
2022/01/31 02:51:59;;;;;;;20.88;10.55;;;128.30;2252.80;;;;;;4977755;28;20053;-84
2022/01/31 02:54:26;;;;;;;39.00;18.90;;;128.40;2252.80;;;;;;4994846;28;20023;-83
2022/01/31 02:56:52;;;;;;;36.45;17.33;;;128.40;2252.80;;;;;;4979656;28;20030;-85
2022/01/31 02:59:18;;;;;;;25.70;13.32;;;128.30;2252.80;;;;;;4981420;28;20466;-87
2022/01/31 03:01:44;;;;;;;25.58;13.10;;;128.30;2252.80;;;;;;4981130;28;20027;-84
2022/01/31 03:04:10;;;;;;;22.38;12.20;;;128.30;2252.80;;;;;;4981373;28;20501;-83
2022/01/31 03:06:38;;;;;;;23.73;10.50;;;128.30;2252.80;;;;;;4981165;28;20030;-86
2022/01/31 03:09:05;;;;;;;22.63;10.20;;;128.30;2252.80;;;;;;4998319;28;20018;-86
2022/01/31 03:11:32;;;;;;;18.83;10.13;;;128.30;2252.80;;;;;;4981194;28;20031;-86
2022/01/31 03:13:58;;;;;;;21.45;9.98;;;128.20;2252.80;;;;;;4980998;28;20034;-86
2022/01/31 03:16:24;;;;;;;20.20;8.98;;;103.00;2227.20;;;;;;4980768;28;20057;-85
2022/01/31 03:18:49;;;;;;;20.30;10.02;;;128.10;2252.80;;;;;;4980720;28;20027;-87
2022/01/31 03:21:15;;;;;;;22.58;9.77;;;128.10;2252.80;;;;;;4981060;28;20037;-86
2022/01/31 03:23:43;;;;;;;29.80;16.73;;;128.10;2252.80;;;;;;4980646;28;20038;-86
2022/01/31 03:26:08;;;;;;;25.63;12.38;;;128.50;2252.80;;;;;;4980882;28;20359;-84
2022/01/31 03:28:34;;;;;;;16.27;8.20;;;128.10;2252.80;;;;;;4980603;28;20033;-84
2022/01/31 03:31:00;;;;;;;18.13;8.65;;;128.10;2252.80;;;;;;4980718;28;20026;-85
2022/01/31 03:33:26;;;;;;;22.10;11.32;;;128.10;2252.80;;;;;;4980761;28;20026;-85
2022/01/31 03:35:52;;;;;;;25.58;11.75;;;128.00;2252.80;;;;;;4980813;28;20030;-85
2022/01/31 03:38:17;;;;;;;21.92;11.80;;;128.00;2252.80;;;;;;4980753;28;20026;-84
2022/01/31 03:40:43;;;;;;;26.80;10.90;;;128.00;2252.80;;;;;;4980663;28;20027;-86
2022/01/31 03:43:09;;;;;;;16.23;9.00;;;103.30;2227.20;;;;;;4980934;28;20026;-84
2022/01/31 03:45:35;;;;;;;12.77;7.82;;;103.30;2227.20;;;;;;4980357;28;20653;-88
2022/01/31 03:48:05;;;;;;;16.10;7.43;;;103.30;2227.20;;;;;;4980438;28;20081;-86
2022/01/31 03:50:30;;;;;;;12.82;6.60;;;103.20;2227.20;;;;;;4980387;28;20378;-84
2022/01/31 03:52:56;;;;;;;21.25;7.78;;;103.30;2227.20;;;;;;4980243;28;20030;-85
2022/01/31 03:55:22;;;;;;;13.20;5.78;;;103.30;2227.20;;;;;;4980346;28;20027;-84
2022/01/31 03:57:49;;;;;;;14.43;6.43;;;103.30;2227.20;;;;;;4980216;28;20387;-86
2022/01/31 04:00:16;;;;;;;22.27;9.23;;;103.20;2227.20;;;;;;4980148;28;20042;-86
2022/01/31 04:02:42;;;;;;;25.20;11.65;;;103.20;2227.20;;;;;;4980165;28;20030;-86
2022/01/31 04:05:09;;;;;;;26.10;9.63;;;103.20;2227.20;;;;;;4980133;28;20122;-84
2022/01/31 04:07:35;;;;;;;31.17;13.52;;;103.20;2227.20;;;;;;4979972;28;20022;-86
2022/01/31 04:10:03;;;;;;;34.72;14.30;;;103.10;2227.20;;;;;;4980233;28;20490;-84
2022/01/31 04:12:29;;;;;;;32.17;15.65;;;103.10;2227.20;;;;;;4979854;28;20034;-86
2022/01/31 04:14:54;;;;;;;27.30;14.70;;;103.10;2227.20;;;;;;4980151;28;20585;-83
2022/01/31 04:17:21;;;;;;;30.73;15.45;;;103.10;2227.20;;;;;;4980079;28;20023;-84
2022/01/31 04:19:48;;;;;;;33.53;17.23;;;103.00;2227.20;;;;;;4979702;28;20118;-84
2022/01/31 04:22:17;;;;;;;26.48;14.48;;;103.00;2227.20;;;;;;4979911;28;20030;-84
2022/01/31 04:25:27;;;;;;;40.13;15.57;;;102.90;2227.20;;;;;;4979833;28;20056;-83
2022/01/31 04:28:01;;;;;;;34.70;17.02;;;102.90;2227.20;;;;;;4979386;28;20022;-84
2022/01/31 04:30:35;;;;;;;29.27;16.55;;;102.80;2227.20;;;;;;4979866;28;20035;-87
2022/01/31 04:33:00;;;;;;;19.15;8.05;;;102.90;2227.20;;;;;;4979716;28;20037;-83
2022/01/31 04:35:26;;;;;;;22.30;11.02;;;102.80;2227.20;;;;;;4979679;28;20027;-87
2022/01/31 04:37:52;;;;;;;24.55;12.90;;;102.90;2227.20;;;;;;4979608;28;20117;-89
2022/01/31 04:40:18;;;;;;;31.88;15.23;;;102.90;2227.20;;;;;;4979424;28;20065;-88
2022/01/31 04:42:45;;;;;;;29.83;15.30;;;102.90;2227.20;;;;;;4979512;28;20023;-87
2022/01/31 04:45:12;;;;;;;29.58;14.82;;;102.90;2227.20;;;;;;4996640;28;20109;-86
2022/01/31 04:47:38;;;;;;;33.28;18.35;;;102.90;2227.20;;;;;;4978979;28;20069;-88
2022/01/31 04:50:05;;;;;;;25.67;14.65;;;102.80;2227.20;;;;;;4979051;28;20057;-88
2022/01/31 04:52:31;;;;;;;21.40;11.68;;;102.80;2227.20;;;;;;4996965;28;20027;-87
2022/01/31 04:54:57;;;;;;;29.98;16.35;;;102.80;2227.20;;;;;;4979274;28;20027;-85
2022/01/31 04:57:23;;;;;;;35.03;19.17;;;102.80;2227.20;;;;;;4979185;28;20458;-84
2022/01/31 04:59:50;;;;;;;29.25;15.80;;;102.80;2227.20;;;;;;4979155;28;20080;-85
2022/01/31 05:02:16;;;;;;;24.90;9.15;;;102.70;2227.20;;;;;;4979071;28;20537;-85
2022/01/31 05:04:42;;;;;;;31.00;14.13;;;102.80;2227.20;;;;;;4979096;28;20034;-83
2022/01/31 05:07:08;;;;;;;25.52;11.35;;;102.80;2227.20;;;;;;4979059;28;20066;-84
2022/01/31 05:09:33;;;;;;;29.27;15.52;;;102.80;2227.20;;;;;;4978745;28;20407;-86
2022/01/31 05:12:00;;;;;;;42.40;22.10;;;102.80;2227.20;;;;;;4978881;28;20038;-85
2022/01/31 05:14:25;;;;;;;47.45;23.88;;;102.70;2227.20;;;;;;4978720;28;20072;-87
2022/01/31 05:16:51;;;;;;;42.60;22.17;;;102.60;2227.20;;;;;;4999233;28;20014;-82
2022/01/31 05:19:17;;;;;;;51.50;22.95;;;102.50;2227.20;;;;;;4988706;28;20123;-84
2022/01/31 05:21:43;;;;;;;49.97;24.20;;;102.40;2227.20;;;;;;4980102;28;20033;-85
2022/01/31 05:24:10;;;;;;;63.47;29.02;;;102.40;2227.20;;;;;;4979220;28;20034;-84
2022/01/31 05:26:36;;;;;;;67.00;30.25;;;102.50;2227.20;;;;;;4978644;28;20030;-85
2022/01/31 05:29:02;;;;;;;93.28;38.15;;;102.50;2227.20;;;;;;4978442;28;20076;-87
2022/01/31 05:31:28;;;;;;;96.40;39.33;;;102.50;2227.20;;;;;;4978375;28;20023;-85
2022/01/31 05:33:54;;;;;;;42.60;19.08;;;77.70;2227.20;;;;;;4978449;28;20053;-85
2022/01/31 05:36:21;;;;;;;184.15;64.22;;;102.40;2227.20;;;;;;4978267;28;20466;-84
2022/01/31 05:38:47;;;;;;;117.95;44.25;;;102.40;2227.20;;;;;;4978384;28;20034;-84
2022/01/31 05:41:18;;;;;;;100.40;35.83;;;102.40;2227.20;;;;;;4995524;28;20030;-87
2022/01/31 05:43:45;;;;;;;80.80;30.23;;;102.40;2227.20;;;;;;4978283;28;20030;-86
2022/01/31 05:46:11;;;;;;;51.25;20.48;;;102.40;2227.20;;;;;;4978261;28;20038;-87
2022/01/31 05:48:37;;;;;;;99.38;37.65;;;102.40;2227.20;;;;;;4995240;28;20050;-85
2022/01/31 05:51:04;;;;;;;61.90;27.20;;;102.50;2227.20;;;;;;4978278;28;20033;-85
2022/01/31 05:53:30;;;;;;;88.75;32.60;;;77.50;2227.20;;;;;;4978237;28;20518;-85
2022/01/31 05:55:57;;;;;;;119.05;37.78;;;102.40;2227.20;;;;;;4978255;28;20459;-85
2022/01/31 05:58:23;;;;;;;139.30;50.45;;;77.60;2227.20;;;;;;4977993;28;20081;-87
2022/01/31 06:00:49;;;;;;;103.45;34.03;;;77.60;2227.20;;;;;;4978225;28;20026;-86
2022/01/31 06:03:15;;;;;;;92.38;38.20;;;77.60;2227.20;;;;;;4995832;28;20370;-84
2022/01/31 06:05:41;;;;;;;72.07;36.45;;;77.50;2227.20;;;;;;4977888;28;20034;-85
2022/01/31 06:08:07;;;;;;;108.53;56.35;;;77.40;2227.20;;;;;;4978139;28;20037;-86
2022/01/31 06:10:40;;;;;;;107.70;53.42;;;77.40;2227.20;;;;;;4977950;28;20463;-86
2022/01/31 06:13:05;;;;;;;117.63;59.05;;;77.30;2227.20;;;;;;4977984;28;20036;-85
2022/01/31 06:15:31;;;;;;;84.35;44.60;;;77.30;2227.20;;;;;;4977953;28;20113;-84
2022/01/31 06:17:57;;;;;;;90.68;49.70;;;77.20;2227.20;;;;;;4977579;28;20030;-86
2022/01/31 06:20:23;;;;;;;143.77;79.32;;;77.20;2227.20;;;;;;4977850;28;20455;-85
2022/01/31 06:22:50;;;;;;;146.80;86.65;;;77.10;2227.20;;;;;;4978200;28;20034;-87
2022/01/31 06:25:20;;;;;;;171.52;99.28;;;77.10;2227.20;;;;;;4977547;28;20466;-87
2022/01/31 06:27:46;;;;;;;211.38;121.55;;;77.00;2227.20;;;;;;4977761;28;20397;-85
2022/01/31 06:30:13;;;;;;;244.20;142.00;;;77.00;2227.20;;;;;;4977743;28;20049;-86
2022/01/31 06:32:39;;;;;;;256.05;148.70;;;77.10;2227.20;;;;;;4977603;28;20086;-84
2022/01/31 06:35:06;;;;;;;311.88;164.57;;;77.10;2227.20;;;;;;4977605;28;20039;-86
2022/01/31 06:37:33;;;;;;;354.02;196.88;;;77.20;2227.20;;;;;;4977592;28;20028;-83
2022/01/31 06:39:59;;;;;;;372.05;222.73;;;77.20;2227.20;;;;;;4977431;28;20030;-85
2022/01/31 06:42:25;;;;;;;361.73;214.43;;;77.30;2227.20;;;;;;4994781;28;20086;-88
2022/01/31 06:44:51;;;;;;;324.38;195.70;;;77.40;2227.20;;;;;;4977633;28;20066;-87
2022/01/31 06:47:18;;;;;;;308.85;190.00;;;77.40;2227.20;;;;;;4977165;28;20054;-85
2022/01/31 06:49:43;;;;;;;280.75;178.43;;;77.40;2227.20;;;;;;4977916;28;20026;-87
2022/01/31 06:52:09;;;;;;;244.20;153.48;;;77.30;2227.20;;;;;;4977565;28;20027;-86
2022/01/31 06:54:35;;;;;;;225.80;139.93;;;77.20;2227.20;;;;;;4977336;28;20046;-86
2022/01/31 06:57:04;;;;;;;239.73;139.75;;;77.20;2227.20;;;;;;4977809;28;20582;-86
2022/01/31 06:59:30;;;;;;;221.13;119.22;;;77.20;2227.20;;;;;;4977317;28;20077;-84
2022/01/31 07:01:56;;;;;;;126.95;65.68;;;77.30;2227.20;;;;;;4977027;28;20026;-80
2022/01/31 07:04:21;;;;;;;125.65;65.78;;;77.40;2227.20;;;;;;4977252;28;20061;-88
2022/01/31 07:06:47;;;;;;;148.27;79.55;;;77.40;2227.20;;;;;;4976966;28;20018;-83
2022/01/31 07:09:13;;;;;;;139.63;75.30;;;77.40;2227.20;;;;;;4994362;28;20033;-86
2022/01/31 07:11:41;;;;;;;148.82;82.40;;;77.50;2227.20;;;;;;4977366;28;20050;-87
2022/01/31 07:14:29;;;;;;;100.22;59.58;;;77.50;2227.20;;;;;;4977175;28;20463;-86
2022/01/31 07:16:53;;;;;;;73.22;45.38;;;77.50;2227.20;;;;;;4994017;28;20065;-85
2022/01/31 07:19:22;;;;;;;67.45;38.90;;;77.40;2227.20;;;;;;4977348;28;20034;-87
2022/01/31 07:21:50;;;;;;;71.60;39.22;;;77.40;2227.20;;;;;;4977233;28;20062;-88
2022/01/31 07:26:43;;;;;;;52.40;33.50;;;77.30;2227.20;;;;;;4994448;28;20029;-85
2022/01/31 07:29:09;;;;;;;62.25;39.17;;;77.20;2227.20;;;;;;4977427;28;20378;-85
2022/01/31 07:31:35;;;;;;;63.25;38.42;;;77.50;2227.20;;;;;;4977094;28;20033;-86
2022/01/31 07:34:01;;;;;;;79.50;50.10;;;77.50;2227.20;;;;;;4977120;28;20041;-85
2022/01/31 07:36:29;;;;;;;89.43;54.63;;;77.60;2227.20;;;;;;4976978;28;20030;-86
2022/01/31 07:38:55;;;;;;;59.88;34.65;;;77.60;2227.20;;;;;;4977086;28;20027;-85
2022/01/31 07:41:21;;;;;;;45.22;29.77;;;77.60;2227.20;;;;;;4977137;28;20030;-87
2022/01/31 07:43:47;;;;;;;52.92;31.10;;;77.50;2227.20;;;;;;4980247;28;20027;-84
2022/01/31 07:46:13;;;;;;;63.47;38.20;;;77.50;2227.20;;;;;;4980561;28;20022;-86
2022/01/31 07:48:39;;;;;;;59.10;36.38;;;77.50;2227.20;;;;;;4980219;28;20042;-84
2022/01/31 07:51:06;;;;;;;57.58;33.65;;;77.60;2227.20;;;;;;4980381;28;20034;-84
2022/01/31 07:53:32;;;;;;;82.40;50.95;;;77.40;2227.20;;;;;;4980498;28;20027;-87
2022/01/31 07:56:00;;;;;;;61.60;37.22;;;77.50;2227.20;;;;;;4980214;28;20027;-86
2022/01/31 07:58:26;;;;;;;81.13;48.63;;;77.60;2227.20;;;;;;4979759;28;20034;-86
2022/01/31 08:00:52;;;;;;;76.60;44.13;;;77.60;2227.20;;;;;;4980228;28;20053;-89
2022/01/31 08:03:19;;;;;;;43.83;25.42;;;77.60;2227.20;;;;;;4979995;28;20033;-87
2022/01/31 08:05:45;;;;;;;61.95;35.78;;;77.60;2227.20;;;;;;4980166;28;20047;-87
2022/01/31 08:08:11;;;;;;;54.58;30.88;;;77.70;2227.20;;;;;;4980054;28;20493;-87
2022/01/31 08:10:38;;;;;;;50.67;31.95;;;77.70;2227.20;;;;;;4980019;28;20065;-84
2022/01/31 08:13:06;;;;;;;44.00;28.63;;;102.40;2227.20;;;;;;4979973;28;20032;-88
2022/01/31 08:15:43;;;;;;;47.08;27.55;;;102.40;2227.20;;;;;;4979592;28;20026;-86
2022/01/31 08:18:09;;;;;;;212.10;61.72;;;102.50;2227.20;;;;;;4980053;28;20022;-86
2022/01/31 08:20:35;;;;;;;118.05;52.35;;;102.50;2227.20;;;;;;4979616;28;20129;-85
2022/01/31 08:23:01;;;;;;;40.33;20.55;;;102.50;2227.20;;;;;;4997094;28;20022;-88
2022/01/31 08:25:27;;;;;;;27.75;15.30;;;102.60;2227.20;;;;;;4979697;28;20064;-86
2022/01/31 08:27:56;;;;;;;49.40;24.67;;;102.60;2227.20;;;;;;4979698;28;20061;-86
2022/01/31 08:30:26;;;;;;;64.70;38.70;;;102.70;2227.20;;;;;;4980096;28;20030;-86
2022/01/31 08:33:00;;;;;;;83.38;45.85;;;102.70;2227.20;;;;;;4979622;28;20450;-86
2022/01/31 08:38:11;;;;;;;48.60;31.15;;;102.90;2227.20;;;;;;5001857;28;20017;-87
2022/01/31 08:40:38;;;;;;;46.72;27.52;;;103.00;2227.20;;;;;;5001206;28;20098;-85
2022/01/31 08:43:04;;;;;;;52.83;30.35;;;103.00;2227.20;;;;;;4986028;28;20058;-84
2022/01/31 08:45:30;;;;;;;44.05;23.50;;;103.10;2227.20;;;;;;4984221;28;20038;-85
2022/01/31 08:47:55;;;;;;;119.93;55.58;;;103.30;2227.20;;;;;;4979335;28;20073;-85
2022/01/31 08:50:21;;;;;;;55.22;31.27;;;128.00;2252.80;;;;;;4979403;28;20459;-86
2022/01/31 08:52:47;;;;;;;38.85;20.70;;;103.30;2227.20;;;;;;4979167;28;20061;-86
2022/01/31 08:55:13;;;;;;;33.47;19.63;;;128.10;2252.80;;;;;;4978402;28;20030;-84
2022/01/31 08:57:39;;;;;;;36.58;22.52;;;128.20;2252.80;;;;;;4979071;28;20027;-86
2022/01/31 09:00:06;;;;;;;45.80;26.50;;;128.40;2252.80;;;;;;4978863;28;20033;-85
2022/01/31 09:02:41;;;;;;;51.70;34.40;;;128.70;2252.80;;;;;;4979090;28;20034;-84
2022/01/31 09:05:08;;;;;;;37.13;22.88;;;128.90;2252.80;;;;;;4978985;28;20038;-84
2022/01/31 09:07:33;;;;;;;58.03;35.05;;;153.80;2252.80;;;;;;4978727;28;20031;-86
2022/01/31 09:10:01;;;;;;;38.58;24.65;;;153.80;2252.80;;;;;;4978963;28;20465;-85
2022/01/31 09:12:30;;;;;;;28.17;19.27;;;153.90;2252.80;;;;;;4978649;28;20031;-85
2022/01/31 09:14:56;;;;;;;28.10;15.65;;;154.00;2252.80;;;;;;4978811;28;20026;-87
2022/01/31 09:17:22;;;;;;;27.95;18.92;;;154.00;2176.00;;;;;;4978733;28;20030;-84
2022/01/31 09:19:48;;;;;;;26.77;17.05;;;154.00;2150.40;;;;;;4978615;28;20057;-87
2022/01/31 09:22:15;;;;;;;33.15;20.60;;;154.00;2124.80;;;;;;4978741;28;20027;-84
2022/01/31 09:24:41;;;;;;;27.08;17.77;;;154.00;2227.20;;;;;;4995798;28;20062;-84
2022/01/31 09:27:10;;;;;;;22.52;12.75;;;154.00;2176.00;;;;;;4978280;28;20461;-85
2022/01/31 09:29:37;;;;;;;26.27;14.32;;;154.10;2073.60;;;;;;4978475;28;20030;-83
2022/01/31 09:32:04;;;;;;;29.58;15.07;;;179.50;2048.00;;;;;;4978641;28;20398;-84
2022/01/31 09:34:30;;;;;;;18.33;11.48;;;154.10;2022.40;;;;;;4978332;28;20034;-83
2022/01/31 09:36:57;;;;;;;12.98;7.43;;;154.00;1996.80;;;;;;4978210;28;20076;-84
2022/01/31 09:39:30;;;;;;;21.38;12.68;;;154.10;1996.80;;;;;;4978129;28;20037;-83
2022/01/31 09:41:57;;;;;;;;;;;154.20;1996.80;;;;;;4995952;28;20023;-86
2022/01/31 09:44:43;;;;;;;18.88;11.23;;;154.30;1996.80;;;;;;4978257;28;20281;-85
2022/01/31 09:49:58;;;;;;;13.68;5.60;;;154.40;1945.60;;;;;;4967162;28;20054;-83
2022/01/31 09:52:24;;;;;;;13.77;7.82;;;154.40;1945.60;;;;;;4977840;28;20069;-85
2022/01/31 09:54:49;;;;;;;14.43;8.02;;;154.50;1971.20;;;;;;4977754;28;20026;-85
2022/01/31 09:57:23;;;;;;;17.85;8.77;;;154.50;1920.00;;;;;;4977883;28;20396;-85
2022/01/31 09:59:48;;;;;;;22.55;12.20;;;154.50;1945.60;;;;;;4977900;28;20030;-85
2022/01/31 10:02:14;;;;;;;32.13;17.40;;;179.30;1920.00;;;;;;4977969;28;20026;-84
2022/01/31 10:04:45;;;;;;;20.10;12.38;;;179.40;1868.80;;;;;;4977623;28;20133;-83
2022/01/31 10:07:14;;;;;;;18.48;9.65;;;179.50;1868.80;;;;;;4977746;28;20035;-85
2022/01/31 10:09:43;;;;;;;10.60;4.20;;;179.60;1894.40;;;;;;4977370;28;20030;-84
2022/01/31 10:16:26;;;;;;;13.35;7.20;;;179.60;1843.20;;;;;;4978066;28;20133;-85
2022/01/31 10:17:44;;;;;;;20.92;10.88;;;179.70;1894.40;;;;;;4995014;28;20116;-85
2022/01/31 10:20:25;;;;;;;9.18;3.58;;;179.70;1868.80;;;;;;4977601;28;20022;-82
2022/01/31 10:22:51;;;;;;;15.77;6.45;;;179.70;1817.60;;;;;;4977428;28;20026;-86
2022/01/31 10:25:20;;;;;;;23.55;14.82;;;179.90;1894.40;;;;;;4977176;28;20129;-86
2022/01/31 10:27:48;;;;;;;13.07;8.35;;;179.90;1894.40;;;;;;4977437;28;20422;-84
2022/01/31 10:30:24;;;;;;;21.17;13.70;;;180.00;1843.20;;;;;;4977095;28;20026;-87
2022/01/31 10:32:53;;;;;;;14.25;8.18;;;180.10;1868.80;;;;;;4977347;28;20111;-83
2022/01/31 10:35:24;;;;;;;13.80;7.10;;;204.80;1868.80;;;;;;4994460;28;20062;-84
2022/01/31 10:37:56;;;;;;;19.63;12.00;;;204.80;1843.20;;;;;;4979113;28;20018;-80
2022/01/31 10:54:39;;;;;;;33.60;19.63;;;205.00;1817.60;;;;;;5012472;28;20432;-81
2022/01/31 10:57:13;;;;;;;16.05;9.30;;;205.10;1817.60;;;;;;4995481;28;20022;-82
2022/01/31 11:00:00;;;;;;;20.20;12.10;;;205.10;1792.00;;;;;;4994546;28;20021;-81
2022/01/31 11:02:29;;;;;;;37.17;16.48;;;205.20;1792.00;;;;;;5012803;28;20025;-83
2022/01/31 11:04:58;;;;;;;8.95;4.97;;;205.20;1766.40;;;;;;4994894;28;20034;-83
2022/01/31 11:07:26;;;;;;;11.20;4.00;;;205.20;1766.40;;;;;;4992762;28;20068;-83
2022/01/31 11:09:54;;;;;;;14.85;8.48;;;205.10;1817.60;;;;;;4994691;28;20076;-81
2022/01/31 11:12:24;;;;;;;12.85;4.43;;;205.10;1792.00;;;;;;4995592;28;20038;-82
2022/01/31 11:15:09;;;;;;;30.90;16.60;;;205.20;1766.40;;;;;;4996094;28;20030;-82
2022/01/31 11:17:35;;;;;;;24.10;9.90;;;205.40;1792.00;;;;;;4997821;28;20469;-79
2022/01/31 11:20:06;;;;;;;10.75;5.00;;;205.40;1792.00;;;;;;4985851;28;20029;-83
2022/01/31 11:31:48;;;;;;;;;;;230.40;1843.20;;;;;;4976539;28;20066;-80
2022/01/31 11:34:16;;;;;;;22.42;12.35;;;230.60;1868.80;;;;;;4977753;28;19906;-85
2022/01/31 11:36:43;;;;;;;22.60;14.40;;;230.70;1868.80;;;;;;4960170;28;20491;-85
2022/01/31 11:39:15;;;;;;;18.63;10.45;;;230.60;1868.80;;;;;;4960687;28;20031;-83
2022/01/31 11:41:48;;;;;;;16.92;7.80;;;230.80;1817.60;;;;;;4960029;28;20026;-86
2022/01/31 11:44:22;;;;;;;28.98;19.42;;;231.00;1792.00;;;;;;4977447;28;20114;-85
2022/01/31 11:46:49;;;;;;;34.10;20.27;;;;;;;;;;4959903;28;20034;-83
2022/01/31 11:49:15;;;;;;;25.13;14.95;;;256.00;1817.60;;;;;;4977908;28;20023;-82
2022/01/31 11:51:50;;;;;;;24.48;14.65;;;256.20;1792.00;;;;;;4960732;28;20471;-83
2022/01/31 11:54:23;;;;;;;14.52;6.43;;;256.50;1740.80;;;;;;4977756;28;20034;-83
2022/01/31 11:56:52;;;;;;;20.42;8.32;;;256.40;1689.60;;;;;;4960640;28;20027;-81
2022/01/31 11:59:21;;;;;;;27.23;15.48;;;256.70;1715.20;;;;;;4960674;28;20065;-83
2022/01/31 12:01:50;;;;;;;30.38;15.48;;;256.90;1715.20;;;;;;4960339;28;20023;-86
2022/01/31 12:04:21;;;;;;;41.25;20.60;;;281.60;1689.60;;;;;;4960439;28;20035;-86
2022/01/31 12:06:47;;;;;;;34.92;18.35;;;281.90;1715.20;;;;;;4960620;28;20467;-86
2022/01/31 12:09:17;;;;;;;21.48;13.43;;;282.10;1766.40;;;;;;4960343;28;20027;-83
2022/01/31 12:11:55;;;;;;;15.80;8.77;;;282.00;1689.60;;;;;;4984767;28;20027;-79
2022/01/31 12:14:28;;;;;;;29.38;17.98;;;282.20;1689.60;;;;;;4978837;28;20035;-85
2022/01/31 12:17:19;;;;;;;36.53;21.75;;;282.10;1715.20;;;;;;4978335;28;20033;-82
2022/01/31 12:20:02;;;;;;;30.55;16.92;;;282.00;1715.20;;;;;;4960675;28;20030;-84
2022/01/31 12:22:40;;;;;;;23.10;15.00;;;282.00;1715.20;;;;;;4977347;28;20119;-84
2022/01/31 12:25:27;;;;;;;15.75;10.48;;;282.30;1740.80;;;;;;4960272;28;20065;-82
2022/01/31 12:27:53;;;;;;;20.27;11.45;;;282.40;1715.20;;;;;;4959589;28;20019;-84
2022/01/31 12:30:39;;;;;;;12.30;4.30;;;282.50;1664.00;;;;;;4959572;28;20087;-84
2022/01/31 12:33:31;;;;;;;15.85;8.25;;;282.20;1587.20;;;;;;4959767;28;20042;-83
2022/01/31 12:36:18;;;;;;;20.02;10.30;;;282.20;1612.80;;;;;;4957979;28;20074;-84
2022/01/31 12:38:46;;;;;;;25.05;12.68;;;282.30;1638.40;;;;;;4959416;28;20027;-83
2022/01/31 12:41:33;;;;;;;21.35;10.70;;;282.40;1689.60;;;;;;4959647;28;20579;-80
2022/01/31 12:44:32;;;;;;;14.25;8.48;;;282.30;1664.00;;;;;;4951331;28;20399;-80
2022/01/31 12:47:17;;;;;;;28.25;13.27;;;282.10;1664.00;;;;;;4959327;28;20062;-78
2022/01/31 12:49:44;;;;;;;23.35;13.07;;;282.00;1689.60;;;;;;4959112;28;20027;-81